Time;durP1;ratioP1;P1;durP2;ratioP2;P2;SDS_P1;SDS_P2;PMS_P1;PMS_P2;Temp;Humidity;BMP_temperature;BMP_pressure;BME280_temperature;BME280_humidity;BME280_pressure;Samples;Min_cycle;Max_cycle;Signal;HPM_P1;HPM_P2
2023/12/01 00:03:48;;;;;;;22.50;15.48;;;;;;;-0.37;100.00;148575.16;10498295;28;20044;-68
2023/12/01 00:08:50;;;;;;;24.90;16.90;;;;;;;-0.57;100.00;148525.28;10498338;28;20068;-70
2023/12/01 00:13:52;;;;;;;28.92;17.42;;;;;;;-0.17;100.00;148626.38;10498151;28;20076;-70
2023/12/01 00:18:54;;;;;;;25.10;17.05;;;;;;;-0.55;100.00;148531.66;10498124;28;20083;-70
2023/12/01 00:23:56;;;;;;;29.00;16.58;;;;;;;-0.57;100.00;148526.56;10498259;28;20080;-69
2023/12/01 00:28:58;;;;;;;25.23;17.58;;;;;;;-0.27;100.00;148600.75;10498298;28;20039;-70
2023/12/01 00:34:00;;;;;;;32.67;17.80;;;;;;;-0.22;100.00;148613.56;10499547;28;20123;-70
2023/12/01 00:39:02;;;;;;;29.75;17.42;;;;;;;-0.56;100.00;148529.09;10506072;28;20040;-70
2023/12/01 00:44:04;;;;;;;30.55;18.23;;;;;;;-0.46;100.00;148553.41;10489019;28;20056;-71
2023/12/01 00:49:06;;;;;;;22.15;16.85;;;;;;;-0.43;100.00;148559.81;10507295;28;20407;-70
2023/12/01 00:54:07;;;;;;;27.85;17.05;;;;;;;-0.84;100.00;148457.44;10488206;28;20044;-70
2023/12/01 00:59:09;;;;;;;25.63;16.63;;;;;;;-0.81;100.00;148465.13;10487846;28;20101;-70
2023/12/01 01:04:11;;;;;;;22.50;16.25;;;;;;;-0.39;100.00;148571.34;10506254;28;20149;-70
2023/12/01 01:09:14;;;;;;;36.40;19.33;;;;;;;-0.40;100.00;148568.78;10487162;28;20068;-69
2023/12/01 01:14:16;;;;;;;25.73;16.65;;;;;;;-0.47;100.00;148550.84;10486854;28;20044;-69
2023/12/01 01:19:18;;;;;;;26.88;17.40;;;;;;;-0.78;100.00;148472.81;10486700;28;20083;-69
2023/12/01 01:24:19;;;;;;;30.52;18.40;;;;;;;-0.63;100.00;148511.16;10504642;28;20087;-69
2023/12/01 01:29:21;;;;;;;31.25;17.95;;;;;;;-0.58;100.00;148522.69;10486265;28;20075;-69
2023/12/01 01:34:23;;;;;;;31.30;17.67;;;;;;;-0.56;100.00;148529.09;10485860;28;20099;-69
2023/12/01 01:39:26;;;;;;;29.25;17.40;;;;;;;-0.76;100.00;148479.19;10503758;28;20040;-70
2023/12/01 01:44:28;;;;;;;28.88;17.02;;;;;;;-0.82;100.00;148462.56;10503141;28;20135;-69
2023/12/01 01:49:30;;;;;;;31.70;18.73;;;;;;;-0.94;100.00;148431.84;10485309;28;20516;-69
2023/12/01 01:54:32;;;;;;;30.83;18.27;;;;;;;-1.07;100.00;148401.16;10485427;28;20052;-69
2023/12/01 01:59:34;;;;;;;36.30;17.38;;;;;;;-1.07;100.00;148401.16;10502594;28;20044;-69
2023/12/01 02:04:36;;;;;;;26.98;17.13;;;;;;;-0.85;100.00;148456.16;10468181;28;20075;-69
2023/12/01 02:09:38;;;;;;;21.92;16.20;;;;;;;-0.69;100.00;148494.56;10502112;28;20068;-69
2023/12/01 02:14:40;;;;;;;25.80;17.30;;;;;;;-0.94;100.00;148433.13;10502452;28;20067;-69
2023/12/01 02:19:42;;;;;;;26.35;16.45;;;;;;;-1.14;100.00;148383.28;10502276;28;20131;-70
2023/12/01 02:24:44;;;;;;;31.90;19.00;;;;;;;-1.22;100.00;148361.53;10484437;28;20079;-70
2023/12/01 02:29:46;;;;;;;23.23;17.17;;;;;;;-1.34;100.00;148332.09;10484004;28;20041;-70
2023/12/01 02:34:47;;;;;;;26.75;17.90;;;;;;;-1.24;100.00;148357.66;10484021;28;20139;-71
2023/12/01 02:39:49;;;;;;;22.33;14.95;;;;;;;-0.95;100.00;148430.59;10502095;28;20040;-70
2023/12/01 02:44:51;;;;;;;23.23;16.63;;;;;;;-1.10;100.00;148393.50;10501920;28;20072;-70
2023/12/01 02:49:53;;;;;;;30.63;19.10;;;;;;;-0.94;100.00;148431.84;10501509;28;20040;-70
2023/12/01 02:54:54;;;;;;;23.77;14.88;;;;;;;-1.04;100.00;148408.84;10483577;28;20055;-70
2023/12/01 02:59:56;;;;;;;28.60;16.77;;;;;;;-1.24;100.00;148356.38;10502203;28;20082;-70
2023/12/01 03:04:58;;;;;;;30.00;17.08;;;;;;;-1.41;100.00;148314.22;10482775;28;20048;-70
2023/12/01 03:10:00;;;;;;;32.67;17.67;;;;;;;-1.19;100.00;148369.22;10482195;28;20070;-70
2023/12/01 03:15:04;;;;;;;29.23;17.42;;;;;;;-1.34;100.00;148333.38;10499843;28;20048;-70
2023/12/01 03:20:11;;;;;;;26.15;16.50;;;;;;;-1.44;100.00;148306.53;10482597;28;20098;-70
2023/12/01 03:25:13;;;;;;;23.17;15.50;;;;;;;-1.07;100.00;148399.88;10482488;28;20054;-70
2023/12/01 03:30:17;;;;;;;21.42;16.00;;;;;;;-1.31;100.00;148339.78;10499758;28;20124;-69
2023/12/01 03:35:21;;;;;;;25.17;16.20;;;;;;;-1.37;100.00;148325.72;10483422;28;20296;-69
2023/12/01 03:40:25;;;;;;;27.73;16.42;;;;;;;-1.54;100.00;148282.25;10500202;28;20097;-70
2023/12/01 03:45:26;;;;;;;31.20;16.48;;;;;;;-1.47;100.00;148298.84;10482136;28;20047;-70
2023/12/01 03:50:29;;;;;;;24.65;16.00;;;;;;;-1.03;100.00;148411.38;10500348;28;20043;-69
2023/12/01 03:55:31;;;;;;;29.90;17.05;;;;;;;-1.34;100.00;148333.38;10483066;28;20480;-69
2023/12/01 04:00:33;;;;;;;25.13;16.95;;;;;;;-1.33;100.00;148334.66;10483662;28;20072;-69
2023/12/01 04:05:35;;;;;;;27.73;16.17;;;;;;;-1.16;100.00;148378.13;10500243;28;20087;-70
2023/12/01 04:10:37;;;;;;;27.13;16.55;;;;;;;-1.11;100.00;148390.91;10504870;28;20397;-71
2023/12/01 04:15:39;;;;;;;21.13;14.95;;;;;;;-1.39;100.00;148319.31;10508533;28;20058;-70
2023/12/01 04:20:40;;;;;;;25.02;17.38;;;;;;;-1.49;100.00;148295.03;10507151;28;20131;-70
2023/12/01 04:25:46;;;;;;;33.17;17.15;;;;;;;-1.70;100.00;148242.63;10507677;28;20040;-70
2023/12/01 04:30:48;;;;;;;27.25;16.05;;;;;;;-1.53;100.00;148284.81;10507852;28;20048;-69
2023/12/01 04:35:50;;;;;;;23.25;16.95;;;;;;;-1.68;100.00;148247.75;10506958;28;20044;-70
2023/12/01 04:40:54;;;;;;;26.48;16.00;;;;;;;-1.28;100.00;148347.47;10507780;28;20066;-70
2023/12/01 04:45:56;;;;;;;25.20;15.05;;;;;;;-1.33;100.00;148334.66;10507380;28;20047;-70
2023/12/01 04:50:58;;;;;;;27.98;17.58;;;;;;;-1.47;100.00;148298.84;10507750;28;20458;-71
2023/12/01 04:55:59;;;;;;;26.80;16.75;;;;;;;-1.45;100.00;148305.28;10506139;28;20057;-70
2023/12/01 05:01:01;;;;;;;27.02;16.65;;;;;;;-1.36;100.00;148328.28;10506235;28;20042;-70
2023/12/01 05:06:03;;;;;;;26.52;15.32;;;;;;;-1.13;100.00;148385.81;10505554;28;20086;-69
2023/12/01 05:11:05;;;;;;;30.23;16.55;;;;;;;-1.00;100.00;148417.78;10487237;28;20048;-69
2023/12/01 05:16:07;;;;;;;27.33;17.05;;;;;;;-1.05;100.00;148405.00;10487134;28;20102;-69
2023/12/01 05:21:09;;;;;;;29.05;16.13;;;;;;;-1.51;100.00;148289.91;10504716;28;20397;-68
2023/12/01 05:26:11;;;;;;;30.15;17.65;;;;;;;-1.58;100.00;148272.03;10487026;28;20432;-68
2023/12/01 05:31:13;;;;;;;31.10;17.88;;;;;;;-1.39;100.00;148320.59;10504587;28;20072;-68
2023/12/01 05:36:16;;;;;;;25.55;15.73;;;;;;;-1.34;100.00;148333.38;10486794;28;20041;-69
2023/12/01 05:41:17;;;;;;;37.55;17.17;;;;;;;-1.32;100.00;148337.25;10503799;28;20094;-69
2023/12/01 05:46:19;;;;;;;29.25;17.50;;;;;;;-1.16;100.00;148378.13;10504199;28;20043;-69
2023/12/01 05:51:21;;;;;;;28.90;16.85;;;;;;;-1.12;100.00;148387.09;10503711;28;20094;-69
2023/12/01 05:56:23;;;;;;;26.85;16.38;;;;;;;-1.11;100.00;148389.63;10503948;28;20040;-68
2023/12/01 06:01:25;;;;;;;31.45;16.13;;;;;;;-1.13;100.00;148385.81;10503184;28;20106;-69
2023/12/01 06:06:27;;;;;;;31.15;17.10;;;;;;;-1.50;100.00;148291.22;10503865;28;20044;-70
2023/12/01 06:11:29;;;;;;;30.38;17.67;;;;;;;-1.37;100.00;148325.72;10502418;28;20052;-70
2023/12/01 06:16:31;;;;;;;36.20;17.45;;;;;;;-1.62;100.00;148261.81;10502612;28;20128;-68
2023/12/01 06:21:32;;;;;;;32.88;17.25;;;;;;;-1.62;100.00;148263.06;10501829;28;20392;-69
2023/12/01 06:26:35;;;;;;;39.65;17.77;;;;;;;-1.45;100.00;148304.00;10502105;28;20462;-68
2023/12/01 06:31:40;;;;;;;29.15;16.95;;;;;;;-1.42;100.00;148312.91;10502253;28;20040;-69
2023/12/01 06:36:41;;;;;;;30.45;17.20;;;;;;;-1.34;100.00;148332.09;10502476;28;20115;-69
2023/12/01 06:41:46;;;;;;;31.60;17.50;;;;;;;-1.00;100.00;148416.53;10502259;28;20150;-68
2023/12/01 06:46:47;;;;;;;28.20;16.55;;;;;;;-1.13;100.00;148385.81;10500619;28;20388;-68
2023/12/01 06:51:49;;;;;;;27.83;16.83;;;;;;;-1.00;100.00;148417.78;10501533;28;20090;-68
2023/12/01 06:56:51;;;;;;;27.73;17.00;;;;;;;-1.12;100.00;148387.09;10500797;28;20048;-68
2023/12/01 07:01:53;;;;;;;29.85;16.70;;;;;;;-1.04;100.00;148408.84;10500637;28;20056;-69
2023/12/01 07:07:00;;;;;;;31.23;17.77;;;;;;;-1.04;100.00;148407.56;10499612;28;20040;-69
2023/12/01 07:12:05;;;;;;;36.97;18.08;;;;;;;-1.09;100.00;148396.06;10482793;28;20113;-68
2023/12/01 07:17:06;;;;;;;31.45;17.73;;;;;;;-1.14;100.00;148383.28;10500823;28;20040;-70
2023/12/01 07:22:10;;;;;;;32.33;16.75;;;;;;;-1.22;100.00;148361.53;10500698;28;20052;-68
2023/12/01 07:27:12;;;;;;;33.50;18.80;;;;;;;-1.38;100.00;148321.88;10500096;28;20399;-69
2023/12/01 07:32:14;;;;;;;27.98;16.08;;;;;;;-1.48;100.00;148296.31;10499642;28;20452;-69
2023/12/01 07:37:16;;;;;;;37.70;17.95;;;;;;;-1.56;100.00;148278.41;10481338;28;20511;-69
2023/12/01 07:42:18;;;;;;;28.80;16.80;;;;;;;-1.54;100.00;148282.25;10499369;28;20408;-69
2023/12/01 07:47:20;;;;;;;33.80;18.33;;;;;;;-1.54;100.00;148282.25;10481405;28;20408;-70
2023/12/01 07:52:21;;;;;;;29.60;17.08;;;;;;;-1.53;100.00;148286.09;10499597;28;20127;-69
2023/12/01 07:57:23;;;;;;;39.53;19.70;;;;;;;-1.27;100.00;148350.03;10499747;28;20066;-69
2023/12/01 08:02:25;;;;;;;40.20;18.30;;;;;;;-1.30;100.00;148343.59;10499616;28;20048;-69
2023/12/01 08:07:27;;;;;;;39.33;19.20;;;;;;;-1.35;100.00;148330.84;10498878;28;20451;-69
2023/12/01 08:12:29;;;;;;;34.60;18.83;;;;;;;-1.34;100.00;148332.09;10498792;28;20056;-69
2023/12/01 08:17:31;;;;;;;37.35;19.17;;;;;;;-1.37;100.00;148325.72;10498430;28;20063;-69
2023/12/01 08:22:37;;;;;;;30.73;17.52;;;;;;;-1.29;100.00;148346.16;10505001;22;20044;-66
2023/12/01 08:27:39;;;;;;;40.30;18.23;;;;;;;-1.18;100.00;148373.03;10506158;28;20036;-66
2023/12/01 08:32:42;;;;;;;36.60;19.45;;;;;;;-1.12;100.00;148388.38;10522511;28;20044;-66
2023/12/01 08:37:45;;;;;;;32.65;18.55;;;;;;;-1.16;100.00;148378.13;10540307;28;20032;-66
2023/12/01 08:42:48;;;;;;;34.47;20.05;;;;;;;-0.98;100.00;148422.88;10541566;28;20040;-66
2023/12/01 08:47:51;;;;;;;41.83;20.85;;;;;;;-0.86;100.00;148453.59;10540602;28;20075;-66
2023/12/01 08:52:54;;;;;;;37.45;19.30;;;;;;;-0.98;100.00;148421.63;10523092;28;20044;-66
2023/12/01 08:57:56;;;;;;;33.30;19.27;;;;;;;-1.02;100.00;148412.66;10547640;28;20043;-68
2023/12/01 09:02:57;;;;;;;43.55;19.02;;;;;;;-0.95;100.00;148429.31;10551660;28;20044;-67
2023/12/01 09:08:04;;;;;;;43.55;20.30;;;;;;;-0.99;100.00;148420.34;10529813;28;20040;-66
2023/12/01 09:13:06;;;;;;;40.97;19.97;;;;;;;-0.87;100.00;148449.78;10531111;28;20048;-67
2023/12/01 09:18:08;;;;;;;37.35;19.63;;;;;;;-0.43;100.00;148559.81;10547614;28;20044;-67
2023/12/01 09:23:10;;;;;;;31.60;19.17;;;;;;;-0.57;100.00;148525.28;10529313;28;20063;-66
2023/12/01 09:28:13;;;;;;;34.00;19.23;;;;;;;-0.58;100.00;148522.69;10547711;28;20068;-67
2023/12/01 09:33:16;;;;;;;29.67;18.40;;;;;;;-0.86;100.00;148453.59;10546960;28;20044;-67
2023/12/01 09:38:18;;;;;;;34.10;19.17;;;;;;;-0.70;100.00;148492.00;10528433;28;20044;-67
2023/12/01 09:43:20;;;;;;;32.50;18.60;;;;;;;-0.90;100.00;148442.09;10546396;28;20048;-66
2023/12/01 09:48:22;;;;;;;40.15;20.55;;;;;;;-0.88;100.00;148448.50;10545608;28;20102;-67
2023/12/01 09:53:25;;;;;;;35.53;19.60;;;;;;;-0.70;100.00;148493.28;10527559;28;20047;-67
2023/12/01 09:58:28;;;;;;;43.63;20.52;;;;;;;-0.84;100.00;148458.75;10547102;28;20040;-66
2023/12/01 10:03:30;;;;;;;42.20;20.55;;;;;;;-0.80;100.00;148468.97;10528238;28;20044;-68
2023/12/01 10:08:32;;;;;;;36.13;17.98;;;;;;;-0.75;100.00;148480.50;10546446;28;20058;-67
2023/12/01 10:13:40;;;;;;;48.35;21.40;;;;;;;-0.99;100.00;148420.34;10527210;28;20083;-67
2023/12/01 10:18:57;;;;;;;41.13;21.85;;;;;;;-0.88;100.00;148447.25;10528905;28;20044;-67
2023/12/01 10:24:11;;;;;;;37.23;20.33;;;;;;;-0.80;100.00;148468.97;10545206;28;20051;-66
2023/12/01 10:29:28;;;;;;;38.95;21.90;;;;;;;-0.74;100.00;148481.78;10544321;28;20048;-67
2023/12/01 10:34:31;;;;;;;38.83;20.75;;;;;;;-0.74;100.00;148481.78;10544704;28;20119;-67
2023/12/01 10:39:33;;;;;;;38.15;20.50;;;;;;;-0.66;100.00;148503.53;10527548;28;20453;-66
2023/12/01 10:44:35;;;;;;;40.03;21.42;;;;;;;-0.38;100.00;148572.59;10525624;28;20521;-67
2023/12/01 10:49:39;;;;;;;38.42;20.77;;;;;;;-0.64;100.00;148508.63;10543217;28;20044;-66
2023/12/01 10:54:42;;;;;;;40.67;21.15;;;;;;;-0.65;100.00;148506.06;10543252;28;20043;-66
2023/12/01 10:59:51;;;;;;;46.83;21.92;;;;;;;-0.62;100.00;148513.75;10545575;28;20544;-68
2023/12/01 11:04:53;;;;;;;39.80;19.65;;;;;;;-0.63;100.00;148511.16;10525975;28;20048;-67
2023/12/01 11:10:21;;;;;;;36.55;20.67;;;;;;;-0.59;100.00;148520.13;10543091;28;20462;-66
2023/12/01 11:15:30;;;;;;;43.58;21.55;;;;;;;-0.33;100.00;148585.41;10525029;28;20392;-66
2023/12/01 11:20:33;;;;;;;37.33;20.33;;;;;;;-0.53;100.00;148535.50;10542310;28;20394;-66
2023/12/01 11:25:56;;;;;;;43.33;20.45;;;;;;;-0.52;100.00;148538.06;10541172;28;20314;-66
2023/12/01 11:31:07;;;;;;;42.15;22.10;;;;;;;-0.53;100.00;148535.50;10523134;28;20545;-66
2023/12/01 11:36:26;;;;;;;40.40;20.95;;;;;;;-0.51;100.00;148540.63;10540888;28;20483;-66
2023/12/01 11:41:28;;;;;;;37.80;20.80;;;;;;;-0.23;100.00;148610.97;10523601;28;20036;-66
2023/12/01 11:46:30;;;;;;;37.60;21.40;;;;;;;-0.15;100.00;148630.19;10541422;28;20051;-66
2023/12/01 11:51:32;;;;;;;44.88;20.83;;;;;;;-0.45;100.00;148554.69;10540774;28;20044;-66
2023/12/01 11:56:33;;;;;;;46.90;20.95;;;;;;;-0.58;100.00;148523.94;10540618;28;20509;-66
2023/12/01 12:01:37;;;;;;;41.88;20.00;;;;;;;-0.41;100.00;148564.91;10539956;28;20044;-66
2023/12/01 12:06:41;;;;;;;46.03;21.30;;;;;;;-0.56;100.00;148529.09;10523290;28;20036;-66
2023/12/01 12:11:52;;;;;;;46.05;22.85;;;;;;;-0.42;100.00;148562.38;10540879;28;20448;-67
2023/12/01 12:16:55;;;;;;;42.67;21.65;;;;;;;-0.09;100.00;148645.53;10522540;28;20399;-66
2023/12/01 12:21:58;;;;;;;50.55;23.00;;;;;;;-0.14;100.00;148632.75;10540157;28;20058;-66
2023/12/01 12:27:00;;;;;;;42.97;22.40;;;;;;;-0.26;100.00;148604.59;10507036;28;20090;-65
2023/12/01 12:32:02;;;;;;;45.83;22.23;;;;;;;-0.39;100.00;148571.34;10526814;28;20113;-65
2023/12/01 12:37:04;;;;;;;43.95;21.67;;;;;;;-0.48;100.00;148547.03;10547702;28;20046;-66
2023/12/01 12:42:06;;;;;;;52.08;22.48;;;;;;;-0.53;100.00;148536.78;10547406;28;20040;-66
2023/12/01 12:47:09;;;;;;;47.53;21.63;;;;;;;-0.56;100.00;148527.81;10547509;28;20040;-66
2023/12/01 12:52:11;;;;;;;48.05;23.08;;;;;;;-0.62;100.00;148512.44;10528592;28;20131;-66
2023/12/01 12:57:13;;;;;;;60.22;24.13;;;;;;;-0.62;100.00;148513.75;10529570;28;20050;-66
2023/12/01 13:02:15;;;;;;;60.83;23.17;;;;;;;-0.44;100.00;148557.22;10529637;28;20041;-66
2023/12/01 13:07:17;;;;;;;60.30;23.92;;;;;;;-0.53;100.00;148536.78;10529934;28;20044;-66
2023/12/01 13:12:19;;;;;;;39.50;20.27;;;;;;;-0.38;100.00;148573.88;10531349;28;20557;-66
2023/12/01 13:17:22;;;;;;;49.88;22.02;;;;;;;-0.36;100.00;148578.97;10548867;28;20449;-66
2023/12/01 13:22:23;;;;;;;38.60;20.92;;;;;;;-0.30;100.00;148593.09;10547405;28;20130;-66
2023/12/01 13:27:25;;;;;;;35.05;19.75;;;;;;;-0.37;100.00;148576.44;10536604;28;20086;-66
2023/12/01 13:32:27;;;;;;;43.10;20.00;;;;;;;-0.37;100.00;148575.16;10471443;28;20068;-66
2023/12/01 13:37:29;;;;;;;42.35;20.08;;;;;;;-0.30;100.00;148593.09;10504801;28;20036;-66
2023/12/01 13:42:31;;;;;;;31.63;18.95;;;;;;;-0.08;100.00;148648.13;10507016;28;20044;-66
2023/12/01 13:47:34;;;;;;;34.25;19.27;;;;;;;-0.17;100.00;148626.38;10545251;28;20065;-66
2023/12/01 13:52:37;;;;;;;36.13;20.23;;;;;;;-0.19;100.00;148621.22;10545692;28;20044;-66
2023/12/01 13:57:39;;;;;;;38.38;19.15;;;;;;;-0.32;100.00;148587.94;10527099;28;20040;-66
2023/12/01 14:02:43;;;;;;;38.75;19.60;;;;;;;-0.37;100.00;148575.16;10545158;28;20062;-66
2023/12/01 14:07:46;;;;;;;35.45;19.58;;;;;;;-0.33;100.00;148586.66;10545001;28;20036;-65
2023/12/01 14:12:47;;;;;;;43.22;20.92;;;;;;;-0.48;100.00;148547.03;10544415;28;20075;-66
2023/12/01 14:17:49;;;;;;;40.50;21.85;;;;;;;-0.40;100.00;148568.78;10545057;28;20123;-66
2023/12/01 14:22:51;;;;;;;42.28;20.65;;;;;;;-0.61;100.00;148516.31;10546337;22;20040;-71
2023/12/01 14:27:53;;;;;;;42.83;21.27;;;;;;;-0.52;100.00;148538.06;10502491;28;20064;-70
2023/12/01 14:32:55;;;;;;;38.60;21.63;;;;;;;-0.41;100.00;148566.19;10504776;28;20056;-69
2023/12/01 14:37:58;;;;;;;39.78;21.17;;;;;;;-0.52;100.00;148538.06;10502227;28;20475;-70
2023/12/01 14:43:01;;;;;;;43.67;24.17;;;;;;;-0.44;100.00;148557.22;10501750;28;20465;-68
2023/12/01 14:48:03;;;;;;;41.58;22.50;;;;;;;-0.33;100.00;148585.41;10500181;28;20458;-70
2023/12/01 14:53:05;;;;;;;41.55;21.08;;;;;;;-0.41;100.00;148564.91;10500193;28;20040;-69
2023/12/01 14:58:06;;;;;;;49.75;21.98;;;;;;;-0.34;100.00;148582.84;10499830;28;20047;-69
2023/12/01 15:03:08;;;;;;;39.38;21.08;;;;;;;-0.44;100.00;148557.22;10500811;28;20492;-68
2023/12/01 15:08:10;;;;;;;41.53;21.75;;;;;;;-0.45;100.00;148554.69;10500019;28;20036;-69
2023/12/01 15:13:12;;;;;;;48.10;20.95;;;;;;;-0.42;100.00;148563.63;10499696;28;20100;-69
2023/12/01 15:18:14;;;;;;;39.17;19.60;;;;;;;-0.42;100.00;148562.38;10500418;28;20557;-70
2023/12/01 15:23:16;;;;;;;32.45;18.17;;;;;;;-0.62;100.00;148512.44;10499757;28;20047;-69
2023/12/01 15:28:18;;;;;;;33.00;18.35;;;;;;;-0.60;100.00;148518.84;10481714;28;20102;-69
2023/12/01 15:33:19;;;;;;;28.65;18.45;;;;;;;-0.51;100.00;148541.88;10499873;28;20048;-69
2023/12/01 15:38:22;;;;;;;30.23;18.70;;;;;;;-0.59;100.00;148520.13;10500288;28;20072;-68
2023/12/01 15:43:24;;;;;;;31.90;18.38;;;;;;;-0.47;100.00;148550.84;10500013;28;20044;-69
2023/12/01 15:48:26;;;;;;;35.70;19.77;;;;;;;-0.46;100.00;148552.13;10499963;28;20078;-69
2023/12/01 15:53:27;;;;;;;31.73;20.48;;;;;;;-0.55;100.00;148530.38;10499961;28;20127;-69
2023/12/01 15:58:31;;;;;;;36.55;21.25;;;;;;;-0.55;100.00;148530.38;10499808;28;20510;-70
2023/12/01 16:03:33;;;;;;;38.72;22.73;;;;;;;-0.40;100.00;148568.78;10483351;28;20068;-70
2023/12/01 16:08:35;;;;;;;41.92;22.63;;;;;;;-0.76;100.00;148477.91;10511766;28;20040;-70
2023/12/01 16:13:36;;;;;;;44.22;21.13;;;;;;;-0.81;100.00;148465.13;10512618;28;20119;-70
2023/12/01 16:18:38;;;;;;;35.28;19.63;;;;;;;-0.81;100.00;148465.13;10512460;28;20094;-70
2023/12/01 16:23:40;;;;;;;41.83;21.58;;;;;;;-0.84;100.00;148458.75;10511662;28;20056;-71
2023/12/01 16:28:42;;;;;;;39.47;21.13;;;;;;;-0.81;100.00;148465.13;10511535;28;20037;-69
2023/12/01 16:33:44;;;;;;;40.83;20.05;;;;;;;-0.85;100.00;148456.16;10494566;28;20070;-70
2023/12/01 16:38:46;;;;;;;32.03;18.45;;;;;;;-0.90;100.00;148442.09;10512080;28;20123;-70
2023/12/01 16:43:48;;;;;;;31.13;17.25;;;;;;;-1.00;100.00;148416.53;10511457;28;20074;-69
2023/12/01 16:48:49;;;;;;;24.25;15.68;;;;;;;-0.96;100.00;148426.75;10511369;28;20415;-69
2023/12/01 16:53:51;;;;;;;22.67;15.15;;;;;;;-1.01;100.00;148415.25;10511775;28;20052;-69
2023/12/01 16:58:53;;;;;;;19.85;15.23;;;;;;;-1.16;100.00;148378.13;10511745;28;20044;-68
2023/12/01 17:03:55;;;;;;;18.27;13.57;;;;;;;-1.13;100.00;148385.81;10511584;28;20512;-69
2023/12/01 17:08:57;;;;;;;24.50;13.63;;;;;;;-0.99;100.00;148419.06;10493971;28;20054;-70
2023/12/01 17:14:01;;;;;;;18.95;13.25;;;;;;;-1.14;100.00;148383.28;10511294;28;20094;-70
2023/12/01 17:19:02;;;;;;;14.00;11.65;;;;;;;-1.21;100.00;148365.34;10503898;28;20046;-70
2023/12/01 17:24:05;;;;;;;13.27;11.63;;;;;;;-1.18;100.00;148371.75;10504630;28;20041;-70
2023/12/01 17:29:07;;;;;;;11.88;10.68;;;;;;;-1.17;100.00;148375.59;10504925;28;20106;-69
2023/12/01 17:34:19;;;;;;;18.58;11.45;;;;;;;-1.22;100.00;148362.81;10504906;28;20127;-71
2023/12/01 17:39:21;;;;;;;14.23;11.70;;;;;;;-1.29;100.00;148346.16;10504843;28;20044;-70
2023/12/01 17:44:23;;;;;;;14.55;10.82;;;;;;;-1.23;100.00;148360.25;10504458;28;20036;-70
2023/12/01 17:49:24;;;;;;;11.68;10.57;;;;;;;-1.18;100.00;148371.75;10503795;28;20124;-70
2023/12/01 17:54:28;;;;;;;12.23;10.88;;;;;;;-1.38;100.00;148323.13;10485056;28;20041;-70
2023/12/01 17:59:30;;;;;;;12.40;11.18;;;;;;;-1.39;100.00;148319.31;10502940;28;20040;-70
2023/12/01 18:04:33;;;;;;;16.20;12.25;;;;;;;-1.22;100.00;148362.81;10502695;28;20050;-70
2023/12/01 18:09:35;;;;;;;13.82;10.95;;;;;;;-1.24;100.00;148356.38;10484469;28;20132;-70
2023/12/01 18:14:37;;;;;;;12.80;11.00;;;;;;;-1.12;100.00;148387.09;10502436;28;20040;-70
2023/12/01 18:19:39;;;;;;;14.73;10.45;;;;;;;-1.22;100.00;148362.81;10485137;28;20120;-70
2023/12/01 18:24:41;;;;;;;14.63;11.63;;;;;;;-1.47;100.00;148300.13;10503794;28;20051;-71
2023/12/01 18:29:44;;;;;;;14.13;11.63;;;;;;;-1.34;100.00;148332.09;10501942;28;20484;-71
2023/12/01 18:34:46;;;;;;;14.70;12.20;;;;;;;-1.56;100.00;148278.41;10503427;28;20064;-71
2023/12/01 18:39:47;;;;;;;13.93;11.85;;;;;;;-1.48;100.00;148296.31;10502331;28;20051;-70
2023/12/01 18:44:49;;;;;;;14.85;12.07;;;;;;;-1.32;100.00;148337.25;10502159;28;20048;-71
2023/12/01 18:49:51;;;;;;;16.75;12.10;;;;;;;-1.40;100.00;148318.06;10501729;28;20480;-70
2023/12/01 18:54:53;;;;;;;12.98;11.55;;;;;;;-1.42;100.00;148312.91;10501466;28;20048;-70
2023/12/01 18:59:55;;;;;;;16.42;12.38;;;;;;;-1.24;100.00;148357.66;10502657;28;20040;-71
2023/12/01 19:04:56;;;;;;;15.98;10.23;;;;;;;-1.16;100.00;148376.84;10501591;28;20124;-71
2023/12/01 19:09:58;;;;;;;15.30;10.90;;;;;;;-1.25;100.00;148355.13;10501040;28;20542;-73
2023/12/01 19:15:03;;;;;;;14.55;11.55;;;;;;;-1.31;100.00;148341.06;10501389;28;20052;-72
2023/12/01 19:20:05;;;;;;;16.52;10.88;;;;;;;-1.39;100.00;148319.31;10487069;28;20112;-71
2023/12/01 19:25:07;;;;;;;16.23;12.57;;;;;;;-1.42;100.00;148311.63;10485314;28;20060;-71
2023/12/01 19:30:10;;;;;;;16.10;12.45;;;;;;;-1.30;100.00;148343.59;10503316;28;20092;-74
2023/12/01 19:35:12;;;;;;;20.25;13.73;;;;;;;-1.36;100.00;148328.28;10485614;28;20122;-71
2023/12/01 19:40:14;;;;;;;22.90;12.88;;;;;;;-1.32;100.00;148338.50;10503857;28;20116;-71
2023/12/01 19:45:16;;;;;;;20.10;14.77;;;;;;;-1.53;100.00;148284.81;10503367;28;20044;-72
2023/12/01 19:50:18;;;;;;;16.00;13.40;;;;;;;-1.53;100.00;148284.81;10503263;28;20051;-70
2023/12/01 19:55:21;;;;;;;17.95;13.55;;;;;;;-1.54;100.00;148283.53;10501265;28;20036;-72
2023/12/01 20:00:23;;;;;;;24.15;12.98;;;;;;;-1.62;100.00;148261.81;10481682;28;20052;-72
2023/12/01 20:05:24;;;;;;;20.70;13.85;;;;;;;-1.53;100.00;148284.81;10501574;28;20094;-72
2023/12/01 20:10:26;;;;;;;20.05;14.13;;;;;;;-1.78;100.00;148223.44;10502055;28;20484;-72
2023/12/01 20:15:28;;;;;;;22.23;15.23;;;;;;;-1.59;100.00;148269.47;10499489;28;20095;-71
2023/12/01 20:20:30;;;;;;;34.15;16.40;;;;;;;-1.65;100.00;148255.38;10497861;28;20040;-71
2023/12/01 20:25:31;;;;;;;28.45;15.57;;;;;;;-1.63;100.00;148259.25;10502499;28;20427;-72
2023/12/01 20:30:33;;;;;;;22.45;15.63;;;;;;;-1.70;100.00;148241.34;10503571;28;20496;-69
2023/12/01 20:35:35;;;;;;;21.67;14.90;;;;;;;-1.74;100.00;148232.38;10504398;28;20411;-70
2023/12/01 20:40:37;;;;;;;22.98;14.93;;;;;;;-1.95;100.00;148178.69;10504432;28;20044;-70
2023/12/01 20:45:39;;;;;;;24.50;14.20;;;;;;;-1.96;100.00;148177.41;10504311;28;20462;-70
2023/12/01 20:50:41;;;;;;;22.08;13.75;;;;;;;-1.84;100.00;148208.09;10505093;28;20033;-70
2023/12/01 20:55:43;;;;;;;22.27;14.85;;;;;;;-1.95;100.00;148178.69;10512480;28;20044;-69
2023/12/01 21:00:46;;;;;;;20.95;12.80;;;;;;;-2.00;100.00;148165.91;10511928;28;20404;-69
2023/12/01 21:05:48;;;;;;;20.88;14.10;;;;;;;-2.02;100.00;148162.09;10512910;28;20094;-71
2023/12/01 21:10:50;;;;;;;19.08;13.40;;;;;;;-1.90;100.00;148191.50;10512013;28;20199;-69
2023/12/01 21:15:52;;;;;;;19.08;12.55;;;;;;;-2.11;100.00;148140.38;10509928;28;20040;-70
2023/12/01 21:20:54;;;;;;;15.30;12.52;;;;;;;-2.03;100.00;148160.84;10510125;28;20044;-70
2023/12/01 21:25:56;;;;;;;20.10;12.65;;;;;;;-2.08;100.00;148148.06;10508608;28;20102;-69
2023/12/01 21:30:58;;;;;;;15.23;11.77;;;;;;;-2.13;100.00;148135.25;10492812;28;20067;-70
2023/12/01 21:35:59;;;;;;;14.82;10.57;;;;;;;-2.00;100.00;148165.91;10509631;28;20105;-68
2023/12/01 21:41:01;;;;;;;12.65;10.02;;;;;;;-2.06;100.00;148151.88;10509150;28;20488;-70
2023/12/01 21:46:05;;;;;;;12.80;10.13;;;;;;;-2.08;100.00;148148.06;10510177;28;20044;-69
2023/12/01 21:51:07;;;;;;;12.93;9.13;;;;;;;-2.04;100.00;148156.97;10492531;28;20043;-70
2023/12/01 21:56:09;;;;;;;10.15;9.00;;;;;;;-2.13;100.00;148135.25;10510764;28;20044;-70
2023/12/01 22:01:11;;;;;;;11.40;8.40;;;;;;;-2.02;100.00;148162.09;10509667;28;20411;-70
2023/12/01 22:06:12;;;;;;;13.85;10.35;;;;;;;-2.16;100.00;148126.34;10508582;28;20040;-69
2023/12/01 22:11:14;;;;;;;10.65;9.40;;;;;;;-2.16;100.00;148127.59;10509487;28;20037;-70
2023/12/01 22:16:19;;;;;;;14.43;9.80;;;;;;;-2.08;100.00;148148.06;10510154;28;20115;-69
2023/12/01 22:21:23;;;;;;;16.23;9.00;;;;;;;-2.15;100.00;148130.16;10509394;28;20089;-70
2023/12/01 22:26:25;;;;;;;10.75;8.93;;;;;;;-2.23;100.00;148108.44;10508900;28;20044;-68